Appling, GA (30802)

4:56 PM EDT on September 03, 2015 (GMT -0400)
Morris Callaway Rd | | Change Station
CLOSE
Current Station
Personal Weather Station
Location: Appling, GA
Elevation: 456 ft
Nearby Weather Stations

Elev 456 ft 33.54 °N, 82.35 °W | Updated 8 minutes ago

Overcast
Overcast
88.2 °F
Feels Like 100 °F
N
0.0
Wind Variable Wind from NW

Today
High -- | Low -- °F
--% Chance of Precip.
Yesterday
High -- | Low -- °F
Precip. -- in
7:04 AM 7:52 PM
Waning Gibbous, 67% visible
Pressure 29.97 in
Visibility 10.0 miles
Clouds Scattered Clouds 3800 ft
Heat Index 100 °F
Dew Point 76 °F
Humidity 68%
Rainfall 0.00 in
Snow Depth Not available.
UV 4 out of 12
Pollen 8.60 out of 12
Air Quality Not available.
Flu Activity Not available.
METAR KHQU 032035Z AUTO 31004KT 10SM SCT038 32/24 A2997 RMK AO1 T03170237
Pressure 29.97 in
Visibility 10.0 miles
Clouds Scattered Clouds 3800 ft
Heat Index 100 °F
Dew Point 76 °F
Humidity 68%
Rainfall 0.00 in
Snow Depth Not available.
UV 4 out of 12
Pollen 8.60 out of 12
Air Quality Not available.
Flu Activity Not available.
METAR KHQU 032035Z AUTO 31004KT 10SM SCT038 32/24 A2997 RMK AO1 T03170237

10-Day Weather Forecast

×

Almanac

Astronomy

Sep. 03, 2015 Rise Set
Actual Time
Civil Twilight
Nautical Twilight
Astronomical Twilight
Moon
Length of Visible Light
Length of Day
Tomorrow will be .
, % of the Moon is Illuminated

Today's Extremes

State Highs State Lows

Community

WunderPhotos

Upload Photos

1,852,036 photos uploaded!

WunderBlogs® & News

Nearby

Air Quality

  Air Quality AQ Index Pollutant
Not available.

Snow Depth

Station Depth Elevation

Earthquake Activity

City Distance Mag. Time & Date
Minimum magnitude displayed is 2.5.

Coastal Water Temperatures

Place Temperature

Stations

Nearby Weather Stations

Station Location Temp. Windchill Dew Point Humidity Wind Precip. Elev Updated Type